North Chester, Massachusetts
Current Conditions -  °F | °C
As of 9:53 PM on Friday 21 Nov 2014 (Local Time) from KBAF Reporting Station
Clear Clear  
Wind Chill: 24°   Ceiling: Unl
Heat Index: 24°   Visibility: 10mi
Dew Point: 10°   Wind: 0mph
Humidity: 55%   Direction: NA
Pressure: 30.43"   Gusts: NA
Location:  42.3047°N, 72.879°W
Report Text: KBAF 220253Z 00000KT 10SM CLR M04/M12 A3043 RMK AO2 SLP311 T10441122 53007
Loading
Personal Weather Stations






























Interactive Weather Map New forecast layout! Learn more

10-Day Weather Forecast

Advertisements
Track Severe Weather on mobile